Terminal Aerodrome Forecast
Issued by NWS

Current Version | Previous Version | Text Only | Print | Product List | Glossary On
Versions: 1 2 3 4 5 6 7 8 9 10 11 12 13 14 15 16 17 18 19 20
166
FTUS43 KGRR 310540
TAFLAN
TAF
KLAN 310540Z 3106/0106 VRB03KT P6SM SCT050
     FM310800 31003KT 4SM BR OVC015
     FM311400 35007KT P6SM BKN040
     FM312100 36006KT P6SM SCT040
     FM312300 35007KT P6SM SKC=

USA.gov is the U.S. government's official web portal to all federal, state and local government web resources and services.